Time;durP1;ratioP1;P1;durP2;ratioP2;P2;SDS_P1;SDS_P2;PMS_P1;PMS_P2;Temp;Humidity;BMP_temperature;BMP_pressure;BME280_temperature;BME280_humidity;BME280_pressure;Samples;Min_cycle;Max_cycle;Signal;HPM_P1;HPM_P2
2022/12/09 00:01:32;;;;;;;23.65;11.05;;;3.00;65.80;;;;;;5030150;28;20097;-72
2022/12/09 00:03:59;;;;;;;21.75;10.88;;;3.00;65.80;;;;;;5015565;28;20122;-72
2022/12/09 00:06:27;;;;;;;18.95;9.85;;;3.00;65.80;;;;;;5018089;28;20030;-72
2022/12/09 00:08:54;;;;;;;19.52;10.68;;;3.00;65.80;;;;;;5025455;28;20030;-72
2022/12/09 00:11:21;;;;;;;20.38;10.90;;;2.90;65.80;;;;;;5026544;28;20372;-72
2022/12/09 00:13:54;;;;;;;19.90;10.75;;;2.90;65.80;;;;;;5016107;28;20490;-72
2022/12/09 00:16:21;;;;;;;21.83;12.07;;;2.90;66.00;;;;;;5034745;28;20033;-72
2022/12/09 00:18:48;;;;;;;19.17;10.82;;;2.90;66.10;;;;;;5025355;28;20026;-72
2022/12/09 00:21:18;;;;;;;18.40;11.52;;;2.90;66.20;;;;;;5027970;28;20021;-72
2022/12/09 00:23:44;;;;;;;17.60;10.57;;;2.90;66.20;;;;;;5024811;28;20022;-72
2022/12/09 00:26:10;;;;;;;16.95;9.15;;;2.80;66.10;;;;;;5014639;28;20034;-72
2022/12/09 00:28:37;;;;;;;15.25;9.15;;;2.80;66.10;;;;;;5015272;28;20034;-72
2022/12/09 00:31:04;;;;;;;19.33;11.07;;;2.80;66.10;;;;;;5025446;28;20053;-72
2022/12/09 00:33:31;;;;;;;19.52;10.43;;;2.90;66.50;;;;;;5023446;28;20025;-72
2022/12/09 00:36:08;;;;;;;18.30;9.82;;;2.80;66.20;;;;;;5015113;28;20542;-72
2022/12/09 00:38:34;;;;;;;20.33;9.85;;;2.80;66.30;;;;;;5022350;28;20257;-72
2022/12/09 00:41:00;;;;;;;15.68;10.15;;;2.80;66.20;;;;;;5023182;28;20080;-72
2022/12/09 00:43:26;;;;;;;18.95;11.00;;;2.80;66.20;;;;;;5021902;28;20037;-73
2022/12/09 00:45:52;;;;;;;22.35;12.05;;;2.80;66.30;;;;;;5020191;28;20018;-72
2022/12/09 00:48:17;;;;;;;21.08;11.57;;;2.80;66.30;;;;;;5019844;28;20035;-72
2022/12/09 00:50:46;;;;;;;22.23;11.50;;;2.80;66.40;;;;;;5025235;28;20022;-72
2022/12/09 00:53:12;;;;;;;21.85;11.85;;;2.80;66.40;;;;;;5027271;28;20017;-72
2022/12/09 00:55:38;;;;;;;19.98;10.80;;;2.80;66.40;;;;;;5017861;28;20028;-72
2022/12/09 00:58:04;;;;;;;17.45;9.98;;;2.80;66.40;;;;;;5030820;28;20054;-71
2022/12/09 01:00:30;;;;;;;19.80;11.40;;;2.80;66.40;;;;;;5002900;28;20072;-72
2022/12/09 01:02:56;;;;;;;19.08;10.48;;;2.80;66.40;;;;;;5021296;28;20383;-72
2022/12/09 01:05:22;;;;;;;20.25;10.40;;;2.80;66.30;;;;;;5028480;28;20017;-72
2022/12/09 01:07:49;;;;;;;18.80;10.77;;;2.80;66.30;;;;;;5030463;28;20168;-72
2022/12/09 01:10:15;;;;;;;17.50;9.70;;;2.80;66.40;;;;;;5033757;28;20565;-72
2022/12/09 01:12:41;;;;;;;17.38;9.95;;;2.70;66.40;;;;;;5025308;28;20026;-72
2022/12/09 01:15:08;;;;;;;19.60;10.82;;;2.80;66.50;;;;;;5026022;28;20441;-72
2022/12/09 01:17:36;;;;;;;19.55;10.90;;;2.70;66.60;;;;;;5033668;28;20029;-72
2022/12/09 01:20:03;;;;;;;17.10;10.20;;;2.80;66.80;;;;;;5014646;28;20029;-72
2022/12/09 01:22:29;;;;;;;17.27;10.45;;;2.80;66.80;;;;;;5020850;28;20382;-72
2022/12/09 01:24:55;;;;;;;18.75;9.68;;;2.80;66.80;;;;;;5024285;28;20028;-72
2022/12/09 01:27:20;;;;;;;13.35;8.77;;;2.80;66.80;;;;;;5019408;28;20100;-72
2022/12/09 01:29:46;;;;;;;15.13;8.93;;;2.80;66.80;;;;;;4997062;28;20102;-71
2022/12/09 01:32:12;;;;;;;19.45;10.38;;;2.80;66.80;;;;;;5027707;28;20018;-72
2022/12/09 01:34:38;;;;;;;19.98;10.27;;;2.90;66.90;;;;;;5013595;28;20026;-72
2022/12/09 01:37:03;;;;;;;18.15;10.82;;;2.90;66.90;;;;;;5014181;28;20068;-72
2022/12/09 01:39:29;;;;;;;18.45;9.85;;;2.90;66.90;;;;;;5028890;28;20025;-72
2022/12/09 01:41:55;;;;;;;17.60;10.13;;;2.90;66.90;;;;;;5016936;28;20634;-72
2022/12/09 01:44:24;;;;;;;22.88;10.35;;;3.00;66.90;;;;;;5027403;28;20067;-71
2022/12/09 01:46:54;;;;;;;15.82;9.65;;;2.90;67.00;;;;;;5023279;28;20131;-71
2022/12/09 01:49:40;;;;;;;18.75;9.15;;;3.00;67.10;;;;;;5019520;28;20029;-71
2022/12/09 01:52:09;;;;;;;19.15;10.80;;;3.00;67.00;;;;;;5017402;28;20030;-71
2022/12/09 01:54:36;;;;;;;24.48;12.30;;;3.00;66.80;;;;;;5015097;28;20029;-71
2022/12/09 01:57:03;;;;;;;20.55;11.50;;;3.00;66.80;;;;;;5024512;28;20032;-71
2022/12/09 01:59:30;;;;;;;23.85;12.18;;;3.00;66.80;;;;;;5018067;28;20026;-71
2022/12/09 02:01:59;;;;;;;20.13;11.00;;;3.10;67.00;;;;;;5020619;28;20045;-71
2022/12/09 02:04:30;;;;;;;21.83;11.27;;;3.10;67.10;;;;;;5026556;28;20383;-71
2022/12/09 02:06:59;;;;;;;17.75;10.27;;;3.10;67.00;;;;;;5016039;28;20030;-71
2022/12/09 02:09:24;;;;;;;18.15;10.02;;;3.10;67.10;;;;;;5027245;28;20017;-71
2022/12/09 02:12:02;;;;;;;17.63;10.35;;;3.10;67.10;;;;;;5014685;28;20029;-71
2022/12/09 02:14:52;;;;;;;17.77;10.50;;;3.10;67.20;;;;;;5032759;28;20073;-71
2022/12/09 02:17:33;;;;;;;16.95;9.15;;;3.10;67.30;;;;;;5019223;28;20025;-71
2022/12/09 02:20:07;;;;;;;19.17;11.07;;;3.20;67.40;;;;;;5029152;28;20030;-71
2022/12/09 02:22:46;;;;;;;20.08;11.57;;;3.20;67.40;;;;;;5002891;28;20025;-71
2022/12/09 02:25:49;;;;;;;26.58;14.18;;;3.20;67.30;;;;;;5019796;28;20380;-71
2022/12/09 02:28:21;;;;;;;22.30;11.50;;;3.30;67.40;;;;;;4986768;28;20204;-71
2022/12/09 02:30:54;;;;;;;16.17;9.90;;;3.30;67.40;;;;;;5021430;28;20518;-71
2022/12/09 02:33:35;;;;;;;16.83;9.93;;;3.40;67.30;;;;;;5001244;28;20037;-71
2022/12/09 02:36:04;;;;;;;15.90;9.32;;;3.40;67.30;;;;;;5029177;28;20125;-71
2022/12/09 02:38:32;;;;;;;17.73;10.65;;;3.50;67.20;;;;;;5019885;28;20076;-71
2022/12/09 02:41:21;;;;;;;18.50;11.00;;;3.50;67.10;;;;;;5021801;28;20037;-71
2022/12/09 02:43:52;;;;;;;18.52;11.10;;;3.50;67.00;;;;;;5026415;28;20109;-71
2022/12/09 02:46:20;;;;;;;18.30;10.60;;;3.50;67.00;;;;;;5018075;28;20025;-72
2022/12/09 02:48:56;;;;;;;18.77;11.40;;;3.50;66.90;;;;;;5023384;28;20052;-72
2022/12/09 02:51:25;;;;;;;17.58;10.45;;;3.60;66.90;;;;;;5026793;28;20459;-72
2022/12/09 02:54:02;;;;;;;15.70;9.32;;;3.60;66.80;;;;;;4998411;28;20037;-72
2022/12/09 02:56:28;;;;;;;15.57;9.18;;;3.60;66.70;;;;;;5025753;28;20033;-72
2022/12/09 02:58:54;;;;;;;16.00;9.52;;;3.70;66.70;;;;;;5023002;28;20034;-72
2022/12/09 03:02:01;;;;;;;19.13;9.20;;;3.70;66.70;;;;;;5018950;28;20041;-72
2022/12/09 03:04:28;;;;;;;18.50;10.98;;;3.70;66.60;;;;;;5012496;28;20033;-72
2022/12/09 03:06:58;;;;;;;18.52;11.15;;;3.80;66.60;;;;;;5015463;28;20424;-72
2022/12/09 03:09:33;;;;;;;20.65;11.30;;;3.80;66.40;;;;;;5029176;28;20017;-72
2022/12/09 03:12:05;;;;;;;17.85;9.95;;;3.80;66.40;;;;;;5035901;28;20132;-72
2022/12/09 03:14:36;;;;;;;14.75;9.88;;;3.80;66.40;;;;;;5028878;28;20018;-71
2022/12/09 03:17:12;;;;;;;18.25;9.57;;;3.80;66.50;;;;;;5027809;28;20033;-72
2022/12/09 03:19:54;;;;;;;21.70;10.77;;;3.90;66.70;;;;;;5017252;28;20053;-72
2022/12/09 03:22:27;;;;;;;14.23;9.45;;;3.90;66.50;;;;;;5021964;28;20049;-72
2022/12/09 03:25:04;;;;;;;14.68;9.40;;;4.00;66.50;;;;;;5025801;28;20049;-72
2022/12/09 03:27:41;;;;;;;25.40;11.52;;;4.10;66.50;;;;;;5031950;28;20107;-71
2022/12/09 03:30:09;;;;;;;15.65;9.57;;;4.20;66.60;;;;;;5021137;28;20053;-71
2022/12/09 03:32:37;;;;;;;15.52;9.60;;;4.30;66.60;;;;;;5027519;28;20033;-71
2022/12/09 03:35:19;;;;;;;14.95;8.98;;;4.30;66.40;;;;;;5016582;28;20029;-72
2022/12/09 03:37:47;;;;;;;16.05;8.73;;;4.40;66.30;;;;;;5016726;28;20372;-72
2022/12/09 03:40:16;;;;;;;17.38;9.57;;;4.50;66.30;;;;;;5031011;28;20593;-72
2022/12/09 03:42:49;;;;;;;18.42;10.23;;;4.60;66.20;;;;;;5024567;28;20026;-72
2022/12/09 03:45:18;;;;;;;16.23;10.30;;;4.70;66.10;;;;;;5022441;28;20037;-72
2022/12/09 03:47:44;;;;;;;18.20;10.50;;;4.80;65.90;;;;;;5031919;28;20478;-72
2022/12/09 03:50:11;;;;;;;15.95;10.73;;;4.80;65.60;;;;;;5020043;28;20097;-72
2022/12/09 03:52:42;;;;;;;18.17;10.75;;;4.90;65.30;;;;;;5025265;28;20028;-72
2022/12/09 03:55:33;;;;;;;18.13;11.15;;;4.90;65.20;;;;;;5027857;28;20105;-72
2022/12/09 03:58:02;;;;;;;16.27;9.93;;;4.90;64.90;;;;;;5000770;28;20041;-72
2022/12/09 04:00:29;;;;;;;18.17;10.20;;;5.00;64.70;;;;;;5010613;28;20036;-72
2022/12/09 04:02:55;;;;;;;15.65;9.65;;;5.00;64.40;;;;;;5008230;28;20026;-72
2022/12/09 04:05:21;;;;;;;15.40;9.98;;;5.10;63.90;;;;;;5021186;28;20037;-72
2022/12/09 04:07:46;;;;;;;15.35;8.80;;;5.00;63.40;;;;;;5019060;28;20483;-72
2022/12/09 04:10:12;;;;;;;13.43;8.73;;;5.00;63.20;;;;;;5019971;28;20021;-72
2022/12/09 04:12:38;;;;;;;14.48;8.60;;;5.00;63.20;;;;;;5023388;28;20026;-72
2022/12/09 04:15:05;;;;;;;16.00;9.10;;;5.00;63.20;;;;;;5023527;28;20167;-72
2022/12/09 04:17:31;;;;;;;14.07;8.30;;;5.10;63.40;;;;;;5030502;28;20025;-72
2022/12/09 04:19:57;;;;;;;15.43;8.57;;;5.10;63.40;;;;;;5018015;28;20548;-72
2022/12/09 04:22:23;;;;;;;15.10;8.32;;;5.10;63.20;;;;;;5028772;28;20034;-72
2022/12/09 04:24:49;;;;;;;13.35;8.40;;;5.10;63.00;;;;;;5024577;28;20416;-72
2022/12/09 04:27:15;;;;;;;13.25;7.95;;;5.20;63.00;;;;;;5019071;28;20046;-72
2022/12/09 04:29:41;;;;;;;12.07;7.13;;;5.20;63.00;;;;;;5031079;28;20024;-72
2022/12/09 04:32:07;;;;;;;14.32;8.60;;;5.20;63.00;;;;;;5018544;28;20400;-72
2022/12/09 04:34:33;;;;;;;12.75;7.90;;;5.20;62.90;;;;;;5027144;28;20018;-72
2022/12/09 04:36:59;;;;;;;14.00;8.15;;;5.20;62.60;;;;;;5025730;28;20032;-72
2022/12/09 04:39:24;;;;;;;14.90;8.70;;;5.20;62.60;;;;;;5020059;28;20026;-72
2022/12/09 04:41:50;;;;;;;16.95;8.80;;;5.20;62.30;;;;;;5030872;28;20025;-72
2022/12/09 04:44:16;;;;;;;14.02;7.28;;;5.20;62.20;;;;;;5015341;28;20022;-72
2022/12/09 04:46:42;;;;;;;11.63;7.80;;;5.20;62.10;;;;;;5023205;28;20022;-72
2022/12/09 04:49:08;;;;;;;14.82;8.25;;;5.10;61.90;;;;;;5022162;28;20418;-72
2022/12/09 04:51:33;;;;;;;13.68;8.13;;;5.10;62.00;;;;;;5030257;28;20048;-72
2022/12/09 04:53:59;;;;;;;14.00;8.07;;;5.10;61.90;;;;;;5017682;28;20032;-72
2022/12/09 04:56:25;;;;;;;15.15;8.82;;;5.10;61.80;;;;;;5027885;28;20472;-72
2022/12/09 04:58:51;;;;;;;15.73;8.07;;;5.10;61.80;;;;;;5024179;28;20108;-72
2022/12/09 05:01:20;;;;;;;11.80;6.72;;;5.00;61.80;;;;;;5018530;28;20029;-72
2022/12/09 05:03:52;;;;;;;13.70;8.40;;;5.00;61.90;;;;;;5030293;28;20041;-72
2022/12/09 05:06:20;;;;;;;15.35;9.10;;;5.00;62.00;;;;;;5019591;28;20426;-72
2022/12/09 05:08:46;;;;;;;13.63;8.18;;;5.00;62.00;;;;;;5033841;28;20029;-72
2022/12/09 05:11:16;;;;;;;12.20;7.90;;;4.90;61.90;;;;;;5033896;28;20024;-72
2022/12/09 05:13:42;;;;;;;11.90;7.80;;;4.90;62.70;;;;;;5017371;28;20013;-72
2022/12/09 05:16:11;;;;;;;14.25;7.95;;;4.90;61.90;;;;;;5029782;28;20101;-73
2022/12/09 05:18:37;;;;;;;13.02;8.20;;;4.90;62.10;;;;;;5014653;28;20022;-72
2022/12/09 05:21:08;;;;;;;12.32;7.43;;;4.90;62.20;;;;;;5025498;28;20443;-72
2022/12/09 05:23:34;;;;;;;17.48;10.07;;;4.90;62.50;;;;;;5017887;28;20108;-72
2022/12/09 05:26:08;;;;;;;18.10;10.90;;;5.00;62.70;;;;;;5029826;28;20074;-71
2022/12/09 05:28:35;;;;;;;17.42;10.38;;;5.00;62.70;;;;;;5003637;28;20108;-72
2022/12/09 05:31:02;;;;;;;15.77;9.18;;;5.00;62.70;;;;;;5021555;28;20032;-71
2022/12/09 05:33:28;;;;;;;13.35;7.97;;;5.00;62.70;;;;;;5017293;28;20478;-71
2022/12/09 05:35:54;;;;;;;13.07;8.13;;;5.10;62.80;;;;;;5015630;28;20021;-71
2022/12/09 05:38:21;;;;;;;13.00;7.25;;;5.10;62.70;;;;;;5027819;28;20041;-71
2022/12/09 05:40:47;;;;;;;18.33;8.55;;;5.10;62.60;;;;;;5022835;28;20476;-72
2022/12/09 05:43:13;;;;;;;12.50;7.45;;;5.10;62.50;;;;;;5030054;28;20101;-72
2022/12/09 05:45:38;;;;;;;13.63;8.55;;;5.10;62.50;;;;;;5016774;28;20072;-72
2022/12/09 05:48:04;;;;;;;13.27;8.15;;;5.10;62.50;;;;;;5016891;28;20033;-72
2022/12/09 05:50:30;;;;;;;13.32;8.10;;;5.10;62.60;;;;;;5026904;28;20022;-72
2022/12/09 05:52:56;;;;;;;11.55;7.13;;;5.20;62.80;;;;;;5013384;28;20048;-72
2022/12/09 05:55:21;;;;;;;11.70;7.55;;;5.20;62.80;;;;;;5027396;28;20356;-72
2022/12/09 05:57:47;;;;;;;11.43;7.47;;;5.20;62.80;;;;;;5016475;28;20029;-71
2022/12/09 06:00:13;;;;;;;12.20;7.43;;;5.30;62.90;;;;;;5028336;28;20018;-72
2022/12/09 06:02:39;;;;;;;14.38;8.10;;;5.30;62.90;;;;;;5021266;28;20029;-71
2022/12/09 06:05:06;;;;;;;14.88;7.63;;;5.30;62.80;;;;;;5021135;28;20653;-72
2022/12/09 06:07:33;;;;;;;13.85;7.57;;;5.40;62.70;;;;;;5018466;28;20026;-71
2022/12/09 06:09:59;;;;;;;9.95;6.85;;;5.40;62.60;;;;;;5016258;28;20035;-71
2022/12/09 06:12:25;;;;;;;9.40;6.57;;;5.40;62.60;;;;;;5026436;28;20018;-71
2022/12/09 06:14:51;;;;;;;9.02;6.22;;;5.50;62.60;;;;;;5023007;28;20463;-71
2022/12/09 06:17:17;;;;;;;10.23;6.80;;;5.50;62.60;;;;;;5019295;28;20481;-71
2022/12/09 06:19:43;;;;;;;13.48;7.32;;;5.50;62.60;;;;;;5011535;28;20079;-71
2022/12/09 06:22:09;;;;;;;10.85;7.47;;;5.50;62.50;;;;;;5017146;28;20382;-71
2022/12/09 06:24:35;;;;;;;16.25;8.32;;;5.50;62.40;;;;;;5025634;28;20025;-71
2022/12/09 06:27:00;;;;;;;17.05;7.50;;;5.50;62.10;;;;;;5012749;28;20046;-72
2022/12/09 06:29:26;;;;;;;35.30;19.08;;;5.50;61.80;;;;;;5027571;28;20013;-72
2022/12/09 06:31:52;;;;;;;22.52;12.68;;;5.50;61.60;;;;;;5022269;28;20040;-71
2022/12/09 06:34:18;;;;;;;14.73;8.90;;;5.40;61.50;;;;;;5027073;28;20406;-71
2022/12/09 06:36:44;;;;;;;12.93;7.90;;;5.30;61.40;;;;;;4995542;28;20029;-72
2022/12/09 06:39:10;;;;;;;21.38;15.18;;;5.30;61.40;;;;;;5025973;28;20029;-71
2022/12/09 06:41:38;;;;;;;14.15;9.70;;;5.20;61.40;;;;;;5018398;28;20034;-71
2022/12/09 06:44:04;;;;;;;13.57;8.02;;;5.10;61.30;;;;;;5032726;28;20020;-71
2022/12/09 06:46:30;;;;;;;10.85;7.03;;;5.00;61.40;;;;;;5029547;28;20026;-71
2022/12/09 06:48:55;;;;;;;11.02;7.65;;;5.00;61.50;;;;;;5027303;28;20064;-71
2022/12/09 06:51:23;;;;;;;11.05;6.88;;;4.90;61.60;;;;;;5022517;28;20109;-71
2022/12/09 06:53:49;;;;;;;11.15;6.90;;;4.80;61.70;;;;;;5032884;28;20021;-71
2022/12/09 06:56:15;;;;;;;10.60;7.00;;;4.70;61.80;;;;;;5021706;28;20021;-71
2022/12/09 06:58:42;;;;;;;13.82;6.95;;;4.70;62.00;;;;;;5028698;28;20033;-72
2022/12/09 07:01:20;;;;;;;14.35;8.68;;;4.60;62.00;;;;;;5003377;28;20041;-72
2022/12/09 07:03:49;;;;;;;14.65;9.20;;;4.60;62.20;;;;;;5019778;28;20062;-72
2022/12/09 07:06:32;;;;;;;17.17;8.85;;;4.60;62.40;;;;;;5035885;28;20475;-72
2022/12/09 07:09:04;;;;;;;12.05;6.75;;;4.50;62.60;;;;;;5034264;28;20051;-72
2022/12/09 07:11:30;;;;;;;10.98;6.85;;;4.50;62.70;;;;;;5036228;28;20589;-72
2022/12/09 07:13:56;;;;;;;11.20;7.15;;;4.50;62.80;;;;;;5019491;28;20030;-72
2022/12/09 07:16:22;;;;;;;11.20;6.65;;;4.50;62.90;;;;;;5027854;28;20030;-72
2022/12/09 07:18:48;;;;;;;11.57;7.00;;;4.50;63.00;;;;;;5025776;28;20025;-71
2022/12/09 07:21:18;;;;;;;11.48;7.35;;;4.50;63.20;;;;;;5023161;28;20048;-72
2022/12/09 07:23:44;;;;;;;12.40;7.65;;;4.50;63.50;;;;;;4999735;28;20107;-72
2022/12/09 07:26:11;;;;;;;9.55;6.50;;;4.60;63.80;;;;;;5026436;28;20034;-72
2022/12/09 07:28:39;;;;;;;11.75;6.85;;;4.70;64.00;;;;;;5043780;28;20021;-72
2022/12/09 07:31:05;;;;;;;12.73;7.28;;;4.80;64.10;;;;;;5054625;28;20017;-72
2022/12/09 07:33:31;;;;;;;11.35;7.28;;;4.90;65.00;;;;;;5042947;28;20028;-72
2022/12/09 07:35:58;;;;;;;11.23;6.55;;;5.00;64.20;;;;;;5048992;28;20049;-72
2022/12/09 07:38:25;;;;;;;17.20;8.93;;;5.10;64.00;;;;;;5041784;28;20025;-72
2022/12/09 07:40:51;;;;;;;12.05;7.78;;;5.30;64.00;;;;;;5054215;28;20482;-72
2022/12/09 07:43:17;;;;;;;13.13;8.80;;;5.40;63.90;;;;;;5050726;28;20021;-72
2022/12/09 07:45:43;;;;;;;15.70;9.55;;;5.50;63.80;;;;;;5054545;28;20021;-72
2022/12/09 07:48:10;;;;;;;16.45;9.82;;;5.60;63.60;;;;;;5034480;28;20083;-72
2022/12/09 07:50:36;;;;;;;17.05;10.00;;;5.70;63.50;;;;;;5055491;28;20363;-72
2022/12/09 07:53:02;;;;;;;13.05;8.43;;;5.80;63.30;;;;;;5055497;28;20021;-73
2022/12/09 07:55:28;;;;;;;13.55;7.93;;;5.90;62.40;;;;;;5053467;28;20028;-72
2022/12/09 07:57:54;;;;;;;17.10;8.15;;;6.00;61.90;;;;;;5055337;28;20040;-72
2022/12/09 08:00:20;;;;;;;14.32;8.13;;;6.00;61.60;;;;;;5055377;28;20553;-72
2022/12/09 08:02:46;;;;;;;16.52;9.15;;;6.10;61.40;;;;;;5054086;28;20549;-72
2022/12/09 08:05:12;;;;;;;18.55;8.65;;;6.10;61.00;;;;;;5055090;28;20400;-72
2022/12/09 08:07:38;;;;;;;16.38;8.52;;;6.10;60.60;;;;;;5055104;28;20083;-72
2022/12/09 08:10:04;;;;;;;13.52;7.60;;;6.20;60.60;;;;;;5054343;28;20047;-72
2022/12/09 08:12:30;;;;;;;12.45;7.43;;;6.20;60.70;;;;;;5055173;28;20104;-72
2022/12/09 08:14:56;;;;;;;13.55;7.53;;;6.20;60.90;;;;;;5055003;28;20104;-72
2022/12/09 08:17:23;;;;;;;12.23;7.60;;;6.30;61.00;;;;;;5042808;28;20114;-72
2022/12/09 08:19:49;;;;;;;12.63;7.78;;;6.40;61.20;;;;;;5052335;28;20028;-72
2022/12/09 08:22:15;;;;;;;13.25;7.82;;;6.50;61.30;;;;;;5034915;28;20105;-72
2022/12/09 08:24:41;;;;;;;21.90;9.63;;;6.50;61.20;;;;;;5035068;28;20064;-72
2022/12/09 08:27:07;;;;;;;14.95;9.25;;;6.60;61.00;;;;;;5018871;28;20048;-71
2022/12/09 08:29:32;;;;;;;18.02;9.98;;;6.70;60.70;;;;;;5014933;28;20026;-71
2022/12/09 08:31:58;;;;;;;15.00;9.23;;;6.70;60.40;;;;;;5014546;28;20439;-72
2022/12/09 08:34:24;;;;;;;14.85;9.38;;;6.80;59.70;;;;;;5014946;28;20093;-72
2022/12/09 08:36:50;;;;;;;19.50;8.90;;;6.80;59.40;;;;;;5022835;28;20072;-70
2022/12/09 08:39:16;;;;;;;16.50;9.13;;;6.90;59.30;;;;;;5034560;28;20029;-71
2022/12/09 08:41:45;;;;;;;18.02;9.57;;;6.90;59.20;;;;;;5034558;28;20494;-71
2022/12/09 08:44:17;;;;;;;15.63;9.20;;;7.00;59.10;;;;;;5034601;28;20030;-71
2022/12/09 08:46:45;;;;;;;17.90;9.73;;;7.00;59.10;;;;;;5034413;28;20114;-72
2022/12/09 08:49:12;;;;;;;20.17;11.18;;;7.10;58.90;;;;;;5032772;28;20079;-70
2022/12/09 08:51:39;;;;;;;18.95;10.60;;;7.10;58.60;;;;;;5034472;28;20024;-71
2022/12/09 08:54:05;;;;;;;17.88;10.00;;;7.10;58.40;;;;;;5034264;28;20021;-71
2022/12/09 08:56:31;;;;;;;19.45;10.13;;;7.10;58.30;;;;;;5024789;28;20034;-72
2022/12/09 08:58:56;;;;;;;16.73;9.23;;;7.10;58.30;;;;;;5014341;28;20032;-71
2022/12/09 09:01:25;;;;;;;14.43;8.68;;;7.10;58.40;;;;;;5014297;28;20029;-71
2022/12/09 09:03:51;;;;;;;17.08;9.43;;;7.10;58.10;;;;;;5022504;28;20036;-71
2022/12/09 09:06:18;;;;;;;15.32;9.00;;;7.20;58.20;;;;;;5013260;28;20525;-71
2022/12/09 09:08:45;;;;;;;21.27;9.25;;;7.20;58.10;;;;;;5015501;28;20053;-72
2022/12/09 09:11:17;;;;;;;18.75;9.95;;;7.30;58.10;;;;;;5033755;28;20017;-72
2022/12/09 09:13:45;;;;;;;14.13;8.70;;;7.30;57.90;;;;;;5032447;28;20092;-72
2022/12/09 09:16:15;;;;;;;17.45;9.30;;;7.40;58.10;;;;;;5034031;28;20025;-72
2022/12/09 09:18:41;;;;;;;16.90;10.10;;;7.40;58.10;;;;;;5034030;28;20383;-72
2022/12/09 09:21:08;;;;;;;18.42;10.02;;;7.50;58.40;;;;;;5015890;28;20382;-72
2022/12/09 09:23:34;;;;;;;17.52;9.75;;;7.60;58.50;;;;;;5033871;28;20024;-72
2022/12/09 09:26:03;;;;;;;33.53;10.65;;;7.70;58.60;;;;;;5021502;28;20041;-72
2022/12/09 09:28:28;;;;;;;23.73;10.60;;;7.80;58.50;;;;;;5033835;28;20025;-72
2022/12/09 09:31:02;;;;;;;23.88;9.43;;;7.90;58.10;;;;;;5048070;28;20371;-72
2022/12/09 09:33:28;;;;;;;19.67;10.95;;;8.00;57.90;;;;;;5053747;28;20493;-72
2022/12/09 09:35:59;;;;;;;24.90;11.60;;;8.00;57.80;;;;;;5053777;28;20028;-72
2022/12/09 09:38:26;;;;;;;26.05;11.05;;;8.10;57.80;;;;;;5037024;28;20029;-72
2022/12/09 09:40:53;;;;;;;30.23;10.98;;;8.20;57.90;;;;;;5047800;28;20082;-72
2022/12/09 09:43:23;;;;;;;22.70;11.05;;;8.40;58.00;;;;;;5053728;28;20032;-72
2022/12/09 09:45:50;;;;;;;17.15;10.50;;;8.50;57.90;;;;;;5051692;28;20025;-73
2022/12/09 09:48:20;;;;;;;16.90;10.20;;;8.60;57.40;;;;;;5050064;28;20029;-72
2022/12/09 09:51:27;;;;;;;18.80;10.05;;;8.70;57.20;;;;;;5053302;28;20094;-72
2022/12/09 09:53:53;;;;;;;21.73;10.48;;;8.70;56.80;;;;;;5049178;28;20105;-72
2022/12/09 09:56:42;;;;;;;19.00;10.75;;;8.80;56.90;;;;;;5044381;28;20564;-72
2022/12/09 09:59:49;;;;;;;22.80;11.60;;;8.80;56.30;;;;;;5033081;28;20029;-72
2022/12/09 10:02:33;;;;;;;21.52;10.57;;;8.80;56.00;;;;;;4979339;28;20113;-73
2022/12/09 10:05:06;;;;;;;27.15;12.15;;;8.80;55.60;;;;;;4991464;28;20039;-72
2022/12/09 10:07:36;;;;;;;27.85;11.43;;;8.70;55.20;;;;;;4989658;28;20041;-72
2022/12/09 10:10:14;;;;;;;20.77;10.80;;;8.70;55.30;;;;;;4991644;28;20034;-73
2022/12/09 10:12:59;;;;;;;28.05;10.75;;;8.70;55.20;;;;;;4990445;28;20619;-73
2022/12/09 10:15:28;;;;;;;23.58;10.35;;;8.70;55.60;;;;;;4975169;28;20106;-72
2022/12/09 10:18:24;;;;;;;23.38;10.75;;;8.60;55.70;;;;;;4971705;28;20432;-73
2022/12/09 10:20:50;;;;;;;16.90;9.85;;;8.70;55.80;;;;;;4972998;28;20036;-73
2022/12/09 10:23:16;;;;;;;26.23;11.07;;;8.70;56.30;;;;;;4979775;28;20129;-73
2022/12/09 10:25:53;;;;;;;15.25;9.80;;;8.80;56.20;;;;;;4981631;28;20050;-73
2022/12/09 10:28:31;;;;;;;22.90;10.98;;;8.80;56.10;;;;;;4991008;28;20042;-72
2022/12/09 10:30:57;;;;;;;22.38;11.10;;;8.90;56.10;;;;;;4991191;28;20484;-72
2022/12/09 10:33:35;;;;;;;22.50;10.65;;;9.00;56.00;;;;;;4971973;28;20054;-72
2022/12/09 10:36:01;;;;;;;29.40;12.27;;;9.10;55.80;;;;;;5001574;28;20120;-73
2022/12/09 10:38:29;;;;;;;20.27;10.82;;;9.20;55.90;;;;;;5044676;28;20025;-73
2022/12/09 10:41:08;;;;;;;19.20;10.48;;;9.30;55.60;;;;;;5032657;28;20022;-73
2022/12/09 10:43:37;;;;;;;15.70;9.65;;;9.30;55.10;;;;;;5038694;28;20056;-72
2022/12/09 10:46:18;;;;;;;19.40;11.70;;;9.40;55.10;;;;;;5050631;28;20100;-73
2022/12/09 10:48:47;;;;;;;20.60;11.63;;;9.50;55.00;;;;;;5052574;28;20049;-72
2022/12/09 10:51:33;;;;;;;23.17;12.27;;;9.50;55.10;;;;;;5048846;28;20021;-73
2022/12/09 10:54:31;;;;;;;18.70;11.20;;;9.60;55.10;;;;;;5042302;28;20021;-73
2022/12/09 10:57:15;;;;;;;25.65;10.65;;;9.60;54.90;;;;;;5031779;28;20045;-73
2022/12/09 10:59:54;;;;;;;20.77;10.10;;;9.70;54.80;;;;;;5035557;28;20391;-72
2022/12/09 11:02:21;;;;;;;16.75;10.15;;;9.70;54.70;;;;;;5031209;28;20033;-73
2022/12/09 11:04:47;;;;;;;20.90;11.32;;;9.70;54.70;;;;;;5032401;28;20029;-73
2022/12/09 11:07:26;;;;;;;19.55;11.63;;;9.80;54.70;;;;;;5038903;28;20021;-73
2022/12/09 11:09:55;;;;;;;18.75;11.38;;;9.80;54.20;;;;;;5045431;28;20030;-73
2022/12/09 11:12:27;;;;;;;17.85;10.38;;;9.90;54.50;;;;;;5062043;28;20024;-73
2022/12/09 11:14:58;;;;;;;19.13;10.10;;;9.90;54.30;;;;;;5052457;28;20096;-73
2022/12/09 11:17:27;;;;;;;19.33;10.10;;;10.00;54.10;;;;;;5065596;28;20114;-73
2022/12/09 11:20:05;;;;;;;19.13;10.05;;;10.00;54.00;;;;;;5061220;28;20036;-73
2022/12/09 11:22:41;;;;;;;18.48;10.82;;;10.00;54.00;;;;;;5064773;28;20029;-73
2022/12/09 11:25:28;;;;;;;18.38;10.85;;;10.10;53.90;;;;;;5064508;28;20032;-73
2022/12/09 11:27:54;;;;;;;25.83;11.68;;;10.10;53.80;;;;;;5033139;28;20402;-73
2022/12/09 11:30:23;;;;;;;29.25;17.38;;;10.10;53.90;;;;;;5034520;28;20067;-73
2022/12/09 11:33:15;;;;;;;31.55;17.50;;;10.10;53.90;;;;;;5049187;28;20017;-73
2022/12/09 11:35:47;;;;;;;36.28;12.77;;;10.20;53.70;;;;;;5050071;28;20037;-73
2022/12/09 11:38:34;;;;;;;19.45;11.80;;;10.10;53.60;;;;;;5069887;28;20422;-73
2022/12/09 11:42:12;;;;;;;24.02;14.70;;;10.20;53.60;;;;;;5075515;28;20035;-73
2022/12/09 11:44:11;;;;;;;29.58;15.52;;;10.20;53.70;;;;;;5047683;28;20059;-73
2022/12/09 11:46:37;;;;;;;21.10;12.05;;;10.20;52.70;;;;;;5041763;28;20025;-73
2022/12/09 11:49:13;;;;;;;23.13;12.52;;;10.10;52.50;;;;;;5034109;28;20427;-73
2022/12/09 11:51:42;;;;;;;24.23;11.82;;;10.10;52.70;;;;;;5042125;28;20060;-72
2022/12/09 11:54:19;;;;;;;29.60;15.70;;;10.10;52.50;;;;;;5055438;28;20378;-73
2022/12/09 11:56:46;;;;;;;23.73;13.65;;;10.10;52.80;;;;;;5046147;28;20030;-73
2022/12/09 11:59:22;;;;;;;22.30;11.95;;;10.10;53.00;;;;;;5039970;28;20021;-73
2022/12/09 12:02:36;;;;;;;39.70;13.35;;;10.10;52.90;;;;;;5055243;28;20053;-73
2022/12/09 12:05:24;;;;;;;21.75;12.13;;;10.10;52.80;;;;;;5050758;28;20095;-74
2022/12/09 12:08:06;;;;;;;23.35;11.48;;;10.00;52.60;;;;;;5049842;28;20017;-73
2022/12/09 12:10:41;;;;;;;22.40;11.48;;;10.00;52.90;;;;;;5059259;28;20494;-73
2022/12/09 12:13:34;;;;;;;20.73;11.90;;;10.00;53.00;;;;;;5042358;28;20033;-73
2022/12/09 12:16:18;;;;;;;21.13;11.60;;;10.00;52.90;;;;;;5053417;28;20374;-73
2022/12/09 12:18:44;;;;;;;;;;;10.00;53.00;;;;;;5038655;28;20021;-73
2022/12/09 12:21:30;;;;;;;23.20;12.75;;;10.00;53.80;;;;;;5047576;28;19905;-73
2022/12/09 12:24:33;;;;;;;25.77;13.32;;;10.00;53.20;;;;;;5051352;28;20108;-73
2022/12/09 12:27:23;;;;;;;26.85;14.38;;;10.00;53.20;;;;;;5029340;28;20471;-73
2022/12/09 12:30:07;;;;;;;22.83;14.38;;;10.00;53.30;;;;;;5020641;28;20530;-73
2022/12/09 12:32:51;;;;;;;21.33;13.60;;;10.00;53.10;;;;;;5030211;28;20034;-73
2022/12/09 12:35:45;;;;;;;21.25;12.98;;;10.00;53.00;;;;;;5026651;28;20371;-73
2022/12/09 12:38:22;;;;;;;21.35;12.93;;;10.00;53.00;;;;;;5027300;28;20025;-73
2022/12/09 12:41:03;;;;;;;22.85;13.23;;;9.90;53.10;;;;;;5018163;28;20030;-73
2022/12/09 12:46:50;;;;;;;28.33;15.80;;;9.90;53.30;;;;;;5017479;28;20077;-75
2022/12/09 12:49:16;;;;;;;;;;;9.90;53.60;;;;;;5026544;28;20033;-75
2022/12/09 12:52:03;;;;;;;28.52;16.98;;;9.90;54.10;;;;;;5025514;28;19906;-75
2022/12/09 12:54:54;;;;;;;29.70;17.02;;;9.90;53.70;;;;;;5017588;28;20096;-75
2022/12/09 12:57:40;;;;;;;26.15;14.38;;;9.90;53.90;;;;;;5024531;28;20034;-75
2022/12/09 13:00:15;;;;;;;23.55;13.55;;;9.90;53.90;;;;;;5028558;28;20025;-75
2022/12/09 13:03:09;;;;;;;23.95;14.48;;;9.90;53.90;;;;;;5014247;28;20076;-74